createdAt,value
2017-12-05T00:00:41.133Z,8.13
2017-12-05T00:03:09.393Z,7.63
2017-12-05T00:05:37.636Z,5.73
2017-12-05T00:08:05.876Z,10.97
2017-12-05T00:10:34.546Z,9.43
2017-12-05T00:13:02.787Z,5.23
2017-12-05T00:15:31.040Z,6.37
2017-12-05T00:17:59.303Z,5.70
2017-12-05T00:20:27.576Z,5.30
2017-12-05T00:22:56.207Z,8.10
2017-12-05T00:25:24.499Z,5.40
2017-12-05T00:27:52.724Z,4.37
2017-12-05T00:30:20.980Z,8.57
2017-12-05T00:32:49.636Z,7.40
2017-12-05T00:35:17.891Z,7.57
2017-12-05T00:37:46.139Z,12.00
2017-12-05T00:40:14.419Z,7.90
2017-12-05T00:42:42.680Z,8.93
2017-12-05T00:45:10.935Z,8.43
2017-12-05T00:47:39.244Z,5.97
2017-12-05T00:50:07.487Z,6.07
2017-12-05T00:52:35.747Z,10.67
2017-12-05T00:55:04.014Z,7.53
2017-12-05T00:57:32.253Z,5.83
2017-12-05T01:00:00.534Z,6.43
2017-12-05T01:02:28.796Z,8.60
2017-12-05T01:04:57.040Z,5.83
2017-12-05T01:07:25.286Z,5.30
2017-12-05T01:09:53.536Z,8.30
2017-12-05T01:12:21.779Z,6.60
2017-12-05T01:14:50.417Z,5.90
2017-12-05T01:17:18.688Z,7.20
2017-12-05T01:19:46.911Z,6.23
2017-12-05T01:22:15.469Z,6.23
2017-12-05T01:24:43.740Z,4.53
2017-12-05T01:27:11.993Z,7.27
2017-12-05T01:29:40.226Z,5.53
2017-12-05T01:32:08.916Z,9.70
2017-12-05T01:34:37.561Z,10.33
2017-12-05T01:37:05.798Z,4.53
2017-12-05T01:39:34.060Z,4.37
2017-12-05T01:42:02.322Z,7.10
2017-12-05T01:44:30.967Z,7.67
2017-12-05T01:46:59.313Z,8.57
2017-12-05T01:49:27.550Z,7.63
2017-12-05T01:51:55.789Z,6.33
2017-12-05T01:54:24.060Z,11.37
2017-12-05T01:56:52.315Z,9.07
2017-12-05T01:59:20.575Z,7.30
2017-12-05T02:01:48.835Z,7.93
2017-12-05T02:04:17.470Z,6.80
2017-12-05T02:06:45.700Z,9.80
2017-12-05T02:09:14.354Z,8.20
2017-12-05T02:11:42.576Z,4.70
2017-12-05T02:14:10.834Z,5.87
2017-12-05T02:16:39.488Z,6.63
2017-12-05T02:19:07.729Z,9.50
2017-12-05T02:21:35.965Z,5.60
2017-12-05T02:24:04.623Z,4.63
2017-12-05T02:26:33.092Z,3.77
2017-12-05T02:29:01.348Z,5.13
2017-12-05T02:31:29.632Z,5.20
2017-12-05T02:33:57.864Z,4.23
2017-12-05T02:36:26.501Z,5.50
2017-12-05T02:38:54.764Z,5.03
2017-12-05T02:41:23.002Z,3.80
2017-12-05T02:43:51.622Z,6.13
2017-12-05T02:46:19.917Z,4.00
2017-12-05T02:48:48.154Z,5.00
2017-12-05T02:51:16.388Z,2.80
2017-12-05T02:53:44.659Z,5.07
2017-12-05T02:56:12.904Z,4.83
2017-12-05T02:58:41.128Z,3.77
2017-12-05T03:01:09.804Z,2.70
2017-12-05T03:03:38.448Z,2.63
2017-12-05T03:06:06.686Z,2.87
2017-12-05T03:08:34.975Z,2.90
2017-12-05T03:11:03.210Z,3.93
2017-12-05T03:13:31.447Z,2.70
2017-12-05T03:15:59.703Z,2.87
2017-12-05T03:18:27.948Z,2.90
2017-12-05T03:20:56.573Z,3.43
2017-12-05T03:23:24.824Z,3.47
2017-12-05T03:25:53.055Z,2.20
2017-12-05T03:28:21.288Z,2.20
2017-12-05T03:30:49.563Z,3.40
2017-12-05T03:33:17.807Z,3.93
2017-12-05T03:35:46.041Z,2.27
2017-12-05T03:38:14.319Z,2.50
2017-12-05T03:40:42.557Z,3.17
2017-12-05T03:43:10.799Z,2.43
2017-12-05T03:45:39.056Z,3.07
2017-12-05T03:48:07.284Z,3.17
2017-12-05T03:50:35.516Z,3.80
2017-12-05T03:53:03.788Z,3.20
2017-12-05T03:55:32.031Z,2.87
2017-12-05T03:58:00.270Z,2.60
2017-12-05T04:00:28.936Z,2.40
2017-12-05T04:02:57.176Z,3.53
2017-12-05T04:05:25.424Z,1.90
2017-12-05T04:07:53.705Z,2.27
2017-12-05T04:10:21.989Z,1.80
2017-12-05T04:12:50.224Z,2.57
2017-12-05T04:15:18.872Z,1.40
2017-12-05T04:17:47.114Z,2.17
2017-12-05T04:20:15.388Z,5.00
2017-12-05T04:22:44.016Z,2.50
2017-12-05T04:25:12.256Z,2.33
2017-12-05T04:27:40.492Z,1.80
2017-12-05T04:30:09.179Z,1.73
2017-12-05T04:32:37.415Z,1.73
2017-12-05T04:35:05.656Z,1.90
2017-12-05T04:37:33.936Z,3.03
2017-12-05T04:40:02.168Z,1.80
2017-12-05T04:42:30.416Z,2.60
2017-12-05T04:44:58.687Z,2.53
2017-12-05T04:47:26.922Z,1.87
2017-12-05T04:49:55.544Z,1.93
2017-12-05T04:52:23.783Z,1.67
2017-12-05T04:54:52.035Z,4.33
2017-12-05T04:57:20.309Z,2.43
2017-12-05T04:59:48.587Z,3.10
2017-12-05T05:02:16.830Z,2.80
2017-12-05T05:04:45.062Z,3.00
2017-12-05T05:07:13.731Z,5.00
2017-12-05T05:09:41.974Z,4.90
2017-12-05T05:12:10.215Z,5.00
2017-12-05T05:14:38.482Z,6.07
2017-12-05T05:17:06.737Z,4.10
2017-12-05T05:19:35.377Z,5.27
2017-12-05T05:22:03.632Z,8.80
2017-12-05T05:24:31.880Z,4.77
2017-12-05T05:27:00.561Z,5.00
2017-12-05T05:29:29.208Z,5.20
2017-12-05T05:31:57.464Z,2.90
2017-12-05T05:34:25.784Z,6.10
2017-12-05T05:36:54.008Z,5.00
2017-12-05T05:39:22.258Z,4.97
2017-12-05T05:41:50.912Z,4.80
2017-12-05T05:44:19.158Z,3.87
2017-12-05T05:46:47.396Z,8.57
2017-12-05T05:49:15.652Z,3.30
2017-12-05T05:51:44.284Z,6.10
2017-12-05T05:54:12.526Z,12.17
2017-12-05T05:56:41.204Z,10.97
2017-12-05T05:59:09.833Z,7.23
2017-12-05T06:01:38.080Z,5.70
2017-12-05T06:04:11.516Z,5.20
2017-12-05T06:06:39.757Z,3.80
2017-12-05T06:09:08.291Z,6.20
2017-12-05T06:11:36.552Z,7.10
2017-12-05T06:14:04.797Z,4.67
2017-12-05T06:16:33.085Z,7.30
2017-12-05T06:19:01.337Z,5.37
2017-12-05T06:21:29.563Z,4.63
2017-12-05T06:23:57.855Z,3.40
2017-12-05T06:26:26.171Z,6.03
2017-12-05T06:28:54.461Z,3.40
2017-12-05T06:31:22.733Z,5.23
2017-12-05T06:33:50.979Z,6.20
2017-12-05T06:36:19.623Z,4.67
2017-12-05T06:38:47.897Z,8.63
2017-12-05T06:41:16.137Z,6.30
2017-12-05T06:43:44.372Z,3.33
2017-12-05T06:46:12.949Z,4.57
2017-12-05T06:48:41.221Z,7.30
2017-12-05T06:51:09.461Z,5.67
2017-12-05T06:53:37.727Z,4.30
2017-12-05T06:56:05.947Z,4.20
2017-12-05T06:58:34.194Z,6.07
2017-12-05T07:01:02.609Z,2.43
2017-12-05T07:03:30.925Z,6.63
2017-12-05T07:05:59.160Z,6.43
2017-12-05T07:08:27.413Z,5.53
2017-12-05T07:10:55.656Z,4.70
2017-12-05T07:13:24.037Z,5.63
2017-12-05T07:15:52.342Z,4.50
2017-12-05T07:18:20.589Z,7.50
2017-12-05T07:20:49.112Z,5.00
2017-12-05T07:23:17.357Z,3.80
2017-12-05T07:25:45.594Z,4.63
2017-12-05T07:28:14.251Z,3.30
2017-12-05T07:30:42.490Z,3.80
2017-12-05T07:33:10.732Z,4.60
2017-12-05T07:35:39.444Z,5.10
2017-12-05T07:38:08.203Z,6.90
2017-12-05T07:40:36.869Z,6.90
2017-12-05T07:43:05.123Z,8.93
2017-12-05T07:45:33.462Z,13.00
2017-12-05T07:48:01.688Z,7.73
2017-12-05T07:50:29.962Z,14.43
2017-12-05T07:52:59.476Z,19.63
2017-12-05T07:55:27.745Z,14.40
2017-12-05T07:57:56.017Z,11.53
2017-12-05T08:00:24.958Z,12.73
2017-12-05T08:02:53.351Z,13.70
2017-12-05T08:05:21.587Z,10.43
2017-12-05T08:07:50.260Z,8.97
2017-12-05T08:10:18.523Z,7.33
2017-12-05T08:12:46.790Z,13.03
2017-12-05T08:15:15.069Z,13.70
2017-12-05T08:17:43.353Z,16.67
2017-12-05T08:20:11.605Z,11.20
2017-12-05T08:22:39.845Z,12.63
2017-12-05T08:25:08.124Z,11.77
2017-12-05T08:27:36.408Z,8.20
2017-12-05T08:30:04.692Z,11.13
2017-12-05T08:32:32.971Z,6.90
2017-12-05T08:35:01.939Z,4.37
2017-12-05T08:37:30.577Z,3.23
2017-12-05T08:39:58.858Z,2.77
2017-12-05T08:42:28.001Z,5.43
2017-12-05T08:44:56.241Z,3.13
2017-12-05T08:47:24.673Z,2.83
2017-12-05T08:49:52.922Z,2.50
2017-12-05T08:52:21.278Z,1.77
2017-12-05T08:54:49.533Z,2.70
2017-12-05T08:57:17.787Z,2.17
2017-12-05T08:59:46.190Z,5.10
2017-12-05T09:02:14.487Z,1.60
2017-12-05T09:04:42.738Z,2.27
2017-12-05T09:07:11.014Z,5.57
2017-12-05T09:09:39.708Z,1.57
2017-12-05T09:12:07.943Z,2.00
2017-12-05T09:14:36.243Z,3.83
2017-12-05T09:17:04.482Z,4.70
2017-12-05T09:19:33.556Z,1.60
2017-12-05T09:22:02.530Z,2.13
2017-12-05T09:24:30.757Z,2.60
2017-12-05T09:26:59.051Z,2.27
2017-12-05T09:29:27.341Z,1.93
2017-12-05T09:31:55.590Z,3.50
2017-12-05T09:34:23.870Z,2.93
2017-12-05T09:36:52.167Z,3.30
2017-12-05T09:39:20.458Z,1.83
2017-12-05T09:41:49.453Z,1.03
2017-12-05T09:44:17.730Z,2.77
2017-12-05T09:46:46.484Z,2.40
2017-12-05T09:49:14.712Z,1.63
2017-12-05T09:51:43.369Z,2.20
2017-12-05T09:54:11.614Z,1.70
2017-12-05T09:56:39.878Z,3.93
2017-12-05T09:59:08.168Z,7.70
2017-12-05T10:01:36.407Z,2.27
2017-12-05T10:04:05.049Z,5.13
2017-12-05T10:06:33.328Z,3.23
2017-12-05T10:09:01.580Z,2.90
2017-12-05T10:11:29.814Z,1.43
2017-12-05T10:13:58.581Z,4.10
2017-12-05T10:16:26.807Z,1.80
2017-12-05T10:18:55.049Z,2.03
2017-12-05T10:21:23.800Z,4.97
2017-12-05T10:23:52.036Z,3.57
2017-12-05T10:26:20.291Z,3.00
2017-12-05T10:28:48.988Z,2.00
2017-12-05T10:31:17.623Z,5.77
2017-12-05T10:33:45.886Z,4.77
2017-12-05T10:36:14.154Z,5.90
2017-12-05T10:38:42.376Z,9.00
2017-12-05T10:41:11.263Z,4.90
2017-12-05T10:43:39.500Z,2.93
2017-12-05T10:46:07.751Z,2.60
2017-12-05T10:48:36.008Z,4.40
2017-12-05T10:51:04.341Z,3.60
2017-12-05T10:53:32.625Z,3.20
2017-12-05T10:56:00.996Z,3.20
2017-12-05T10:58:29.226Z,2.33
2017-12-05T11:00:57.515Z,3.43
2017-12-05T11:03:25.754Z,3.47
2017-12-05T11:05:54.069Z,6.60
2017-12-05T11:08:23.323Z,2.97
2017-12-05T11:10:51.992Z,2.77
2017-12-05T11:13:20.256Z,2.67
2017-12-05T11:15:48.575Z,6.07
2017-12-05T11:18:17.209Z,5.97
2017-12-05T11:20:45.457Z,3.77
2017-12-05T11:23:13.768Z,4.40
2017-12-05T11:25:42.018Z,6.10
2017-12-05T11:28:10.279Z,5.33
2017-12-05T11:30:38.608Z,3.23
2017-12-05T11:33:07.109Z,6.93
2017-12-05T11:35:35.381Z,3.47
2017-12-05T11:38:03.670Z,3.50
2017-12-05T11:40:31.967Z,5.17
2017-12-05T11:43:00.924Z,2.37
2017-12-05T11:45:29.300Z,3.60
2017-12-05T11:47:57.547Z,3.47
2017-12-05T11:50:25.791Z,2.50
2017-12-05T11:52:54.089Z,3.57
2017-12-05T11:55:22.334Z,4.23
2017-12-05T11:57:50.568Z,6.40
2017-12-05T12:00:18.826Z,4.60
2017-12-05T12:02:47.092Z,4.83
2017-12-05T12:05:15.370Z,5.37
2017-12-05T12:07:43.664Z,2.83
2017-12-05T12:10:11.888Z,4.70
2017-12-05T12:12:40.548Z,4.37
2017-12-05T12:15:08.781Z,2.57
2017-12-05T12:17:37.041Z,2.77
2017-12-05T12:20:05.326Z,5.40
2017-12-05T12:22:33.554Z,2.80
2017-12-05T12:25:02.190Z,4.20
2017-12-05T12:27:32.933Z,4.40
2017-12-05T12:30:03.076Z,9.10
2017-12-05T12:32:31.336Z,4.17
2017-12-05T12:34:59.595Z,4.17
2017-12-05T12:37:28.332Z,3.80
2017-12-05T12:39:58.683Z,4.00
2017-12-05T12:42:27.327Z,2.77
2017-12-05T12:44:56.004Z,4.40
2017-12-05T12:47:24.305Z,4.50
2017-12-05T12:49:53.194Z,4.83
2017-12-05T12:52:21.419Z,5.50
2017-12-05T12:54:49.729Z,3.93
2017-12-05T12:57:17.983Z,3.70
2017-12-05T12:59:46.246Z,5.30
2017-12-05T13:02:14.513Z,4.40
2017-12-05T13:04:42.797Z,4.60
2017-12-05T13:07:11.033Z,4.10
2017-12-05T13:09:39.322Z,5.03
2017-12-05T13:12:07.958Z,3.87
2017-12-05T13:14:36.437Z,6.27
2017-12-05T13:17:05.180Z,4.97
2017-12-05T13:19:33.451Z,5.20
2017-12-05T13:22:01.760Z,3.60
2017-12-05T13:24:30.162Z,5.63
2017-12-05T13:26:58.867Z,6.27
2017-12-05T13:29:27.152Z,5.20
2017-12-05T13:31:55.539Z,5.20
2017-12-05T13:34:23.802Z,7.30
2017-12-05T13:36:52.074Z,5.73
2017-12-05T13:39:20.406Z,5.47
2017-12-05T13:41:48.798Z,4.80
2017-12-05T13:44:17.168Z,6.70
2017-12-05T13:46:45.479Z,6.27
2017-12-05T13:49:14.184Z,6.20
2017-12-05T13:51:42.465Z,7.20
2017-12-05T13:54:10.815Z,7.70
2017-12-05T13:56:39.086Z,7.00
2017-12-05T13:59:07.764Z,10.40
2017-12-05T14:01:36.089Z,6.97
2017-12-05T14:04:04.384Z,12.87
2017-12-05T14:06:32.647Z,8.57
2017-12-05T14:09:00.920Z,8.50
2017-12-05T14:11:29.237Z,7.13
2017-12-05T14:13:57.487Z,4.80
2017-12-05T14:16:25.787Z,10.17
2017-12-05T14:18:54.024Z,6.07
2017-12-05T14:21:22.913Z,8.03
2017-12-05T14:23:51.199Z,7.50
2017-12-05T14:26:19.728Z,7.23
2017-12-05T14:28:48.005Z,8.00
2017-12-05T14:31:16.265Z,8.30
2017-12-05T14:33:44.561Z,7.37
2017-12-05T14:36:12.922Z,9.07
2017-12-05T14:38:41.168Z,8.43
2017-12-05T14:41:09.484Z,11.23
2017-12-05T14:43:37.912Z,8.37
2017-12-05T14:46:06.159Z,7.70
2017-12-05T14:48:34.456Z,9.73
2017-12-05T14:51:02.724Z,8.60
2017-12-05T14:53:31.372Z,6.67
2017-12-05T14:55:59.653Z,10.63
2017-12-05T14:58:27.993Z,8.60
2017-12-05T15:00:56.288Z,9.73
2017-12-05T15:03:24.617Z,9.20
2017-12-05T15:05:53.255Z,8.07
2017-12-05T15:08:21.516Z,7.27
2017-12-05T15:10:49.836Z,8.30
2017-12-05T15:13:18.074Z,8.83
2017-12-05T15:15:46.388Z,8.03
2017-12-05T15:18:14.742Z,9.50
2017-12-05T15:20:43.021Z,8.70
2017-12-05T15:23:11.299Z,13.40
2017-12-05T15:25:39.676Z,7.83
2017-12-05T15:28:07.918Z,7.90
2017-12-05T15:30:36.197Z,7.50
2017-12-05T15:33:04.924Z,10.40
2017-12-05T15:35:33.158Z,7.30
2017-12-05T15:38:01.428Z,7.70
2017-12-05T15:40:29.696Z,7.17
2017-12-05T15:42:58.830Z,9.23
2017-12-05T15:45:27.065Z,7.30
2017-12-05T15:47:55.312Z,8.40
2017-12-05T15:50:24.022Z,9.20
2017-12-05T15:52:52.568Z,11.30
2017-12-05T15:55:20.813Z,8.20
2017-12-05T15:57:50.233Z,9.73
2017-12-05T16:00:18.505Z,10.57
2017-12-05T16:02:46.797Z,10.00
2017-12-05T16:05:15.110Z,7.10
2017-12-05T16:07:43.350Z,7.40
2017-12-05T16:10:11.654Z,6.50
2017-12-05T16:12:39.950Z,9.60
2017-12-05T16:15:08.203Z,7.83
2017-12-05T16:17:37.685Z,8.13
2017-12-05T16:20:06.198Z,10.40
2017-12-05T16:22:34.964Z,8.50
2017-12-05T16:25:03.630Z,8.10
2017-12-05T16:27:31.897Z,8.33
2017-12-05T16:30:00.510Z,9.70
2017-12-05T16:32:28.765Z,8.43
2017-12-05T16:34:57.135Z,9.77
2017-12-05T16:37:25.433Z,6.33
2017-12-05T16:39:53.645Z,7.63
2017-12-05T16:42:21.937Z,8.53
2017-12-05T16:44:50.196Z,7.40
2017-12-05T16:47:18.462Z,11.00
2017-12-05T16:49:47.113Z,7.80
2017-12-05T16:52:15.349Z,9.53
2017-12-05T16:54:43.608Z,11.10
2017-12-05T16:57:11.928Z,10.47
2017-12-05T16:59:40.186Z,8.13
2017-12-05T17:02:08.441Z,10.27
2017-12-05T17:04:36.734Z,9.63
2017-12-05T17:07:05.005Z,8.67
2017-12-05T17:09:33.629Z,11.97
2017-12-05T17:12:01.948Z,8.60
2017-12-05T17:14:30.300Z,10.30
2017-12-05T17:16:58.565Z,10.77
2017-12-05T17:19:27.139Z,9.53
2017-12-05T17:21:55.724Z,9.10
2017-12-05T17:24:23.992Z,9.93
2017-12-05T17:26:52.283Z,11.03
2017-12-05T17:29:20.512Z,12.70
2017-12-05T17:31:48.814Z,9.43
2017-12-05T17:34:17.069Z,12.43
2017-12-05T17:36:45.366Z,9.60
2017-12-05T17:39:13.603Z,10.07
2017-12-05T17:41:45.134Z,11.23
2017-12-05T17:44:24.047Z,13.57
2017-12-05T17:47:04.466Z,12.00
2017-12-05T17:49:33.291Z,9.93
2017-12-05T17:52:01.590Z,9.97
2017-12-05T17:54:30.332Z,14.60
2017-12-05T17:56:58.604Z,13.00
2017-12-05T17:59:26.868Z,10.93
2017-12-05T18:01:55.173Z,11.00
2017-12-05T18:04:23.443Z,12.10
2017-12-05T18:06:51.687Z,12.50
2017-12-05T18:09:19.996Z,13.20
2017-12-05T18:11:48.268Z,12.67
2017-12-05T18:14:17.293Z,16.50
2017-12-05T18:16:45.560Z,13.23
2017-12-05T18:19:13.809Z,14.60
2017-12-05T18:21:42.124Z,10.70
2017-12-05T18:24:10.440Z,14.20
2017-12-05T18:26:38.723Z,13.67
2017-12-05T18:29:07.004Z,12.17
2017-12-05T18:31:35.266Z,11.63
2017-12-05T18:34:03.525Z,13.37
2017-12-05T18:36:31.810Z,17.07
2017-12-05T18:39:00.086Z,14.80
2017-12-05T18:41:28.337Z,12.70
2017-12-05T18:43:56.639Z,13.30
2017-12-05T18:46:24.928Z,13.37
2017-12-05T18:48:53.192Z,12.70
2017-12-05T18:51:21.754Z,17.57
2017-12-05T18:53:50.413Z,16.40
2017-12-05T18:56:19.088Z,15.20
2017-12-05T18:58:47.392Z,15.07
2017-12-05T19:01:16.058Z,14.93
2017-12-05T19:03:49.218Z,13.87
2017-12-05T19:06:17.495Z,13.07
2017-12-05T19:08:45.788Z,17.33
2017-12-05T19:11:14.072Z,19.00
2017-12-05T19:13:42.346Z,15.53
2017-12-05T19:16:10.770Z,13.60
2017-12-05T19:18:39.221Z,20.10
2017-12-05T19:21:07.872Z,15.30
2017-12-05T19:23:36.593Z,15.33
2017-12-05T19:26:05.564Z,16.87
2017-12-05T19:28:33.833Z,18.47
2017-12-05T19:31:02.089Z,16.27
2017-12-05T19:33:30.491Z,21.23
2017-12-05T19:35:58.716Z,99.57
2017-12-05T19:38:26.967Z,93.33
2017-12-05T19:40:55.667Z,82.07
2017-12-05T19:43:23.950Z,69.00
2017-12-05T19:45:52.227Z,50.70
2017-12-05T19:48:20.611Z,49.47
2017-12-05T19:50:49.237Z,52.20
2017-12-05T19:53:17.497Z,55.47
2017-12-05T19:55:45.760Z,56.73
2017-12-05T19:58:14.021Z,49.90
2017-12-05T20:00:42.270Z,51.97
2017-12-05T20:03:10.946Z,44.00
2017-12-05T20:05:39.661Z,44.97
2017-12-05T20:08:07.945Z,44.07
2017-12-05T20:10:36.211Z,36.83
2017-12-05T20:13:04.544Z,27.37
2017-12-05T20:15:32.786Z,29.50
2017-12-05T20:18:01.069Z,28.63
2017-12-05T20:20:30.445Z,23.87
2017-12-05T20:22:58.760Z,24.70
2017-12-05T20:25:27.129Z,22.20
2017-12-05T20:27:55.375Z,21.73
2017-12-05T20:30:23.643Z,22.27
2017-12-05T20:32:52.347Z,22.27
2017-12-05T20:35:20.638Z,25.43
2017-12-05T20:37:48.887Z,22.50
2017-12-05T20:40:17.160Z,19.20
2017-12-05T20:42:45.446Z,22.43
2017-12-05T20:45:13.934Z,20.70
2017-12-05T20:47:42.196Z,19.17
2017-12-05T20:50:10.470Z,19.03
2017-12-05T20:52:38.740Z,21.03
2017-12-05T20:55:07.988Z,19.07
2017-12-05T20:57:36.764Z,19.03
2017-12-05T21:00:05.032Z,16.83
2017-12-05T21:02:33.344Z,22.27
2017-12-05T21:05:01.616Z,17.60
2017-12-05T21:07:29.873Z,18.33
2017-12-05T21:09:58.694Z,18.23
2017-12-05T21:12:27.003Z,16.10
2017-12-05T21:14:55.303Z,20.53
2017-12-05T21:17:24.039Z,18.80
2017-12-05T21:19:52.750Z,18.90
2017-12-05T21:22:21.306Z,17.90
2017-12-05T21:24:49.915Z,17.10
2017-12-05T21:27:18.728Z,17.03
2017-12-05T21:29:47.834Z,16.37
2017-12-05T21:32:16.076Z,15.40
2017-12-05T21:34:44.407Z,15.17
2017-12-05T21:37:13.102Z,14.17
2017-12-05T21:39:41.368Z,17.53
2017-12-05T21:42:09.746Z,16.23
2017-12-05T21:44:38.194Z,15.80
2017-12-05T21:47:06.452Z,19.33
2017-12-05T21:49:34.732Z,18.10
2017-12-05T21:52:02.999Z,19.93
2017-12-05T21:54:31.334Z,17.90
2017-12-05T21:56:59.608Z,20.60
2017-12-05T21:59:27.867Z,16.60
2017-12-05T22:01:56.115Z,16.67
2017-12-05T22:04:24.392Z,22.40
2017-12-05T22:06:52.667Z,19.00
2017-12-05T22:09:21.047Z,18.93
2017-12-05T22:11:50.006Z,18.50
2017-12-05T22:14:18.248Z,16.00
2017-12-05T22:16:46.672Z,17.00
2017-12-05T22:19:15.347Z,15.77
2017-12-05T22:21:43.593Z,18.23
2017-12-05T22:24:11.852Z,15.90
2017-12-05T22:26:40.152Z,16.67
2017-12-05T22:29:08.396Z,13.77
2017-12-05T22:31:36.668Z,19.30
2017-12-05T22:34:05.040Z,16.90
2017-12-05T22:36:33.313Z,18.43
2017-12-05T22:39:01.563Z,16.73
2017-12-05T22:41:29.828Z,21.93
2017-12-05T22:43:58.081Z,14.27
2017-12-05T22:46:26.592Z,18.17
2017-12-05T22:48:54.897Z,15.47
2017-12-05T22:51:23.268Z,20.33
2017-12-05T22:53:52.901Z,16.43
2017-12-05T22:56:21.201Z,18.23
2017-12-05T22:58:49.462Z,18.93
2017-12-05T23:01:17.949Z,18.70
2017-12-05T23:03:46.397Z,18.90
2017-12-05T23:06:14.674Z,20.53
2017-12-05T23:08:42.978Z,19.40
2017-12-05T23:11:11.946Z,18.90
2017-12-05T23:13:40.483Z,17.40
2017-12-05T23:16:08.725Z,18.03
2017-12-05T23:18:37.673Z,16.50
2017-12-05T23:21:06.092Z,15.17
2017-12-05T23:23:34.359Z,19.33
2017-12-05T23:26:02.636Z,15.50
2017-12-05T23:28:30.901Z,14.77
2017-12-05T23:30:59.147Z,13.63
2017-12-05T23:33:27.472Z,15.00
2017-12-05T23:35:55.711Z,20.70
2017-12-05T23:38:24.357Z,19.87
2017-12-05T23:40:52.656Z,13.97
2017-12-05T23:43:21.341Z,15.20
2017-12-05T23:45:49.593Z,17.30
2017-12-05T23:48:17.849Z,13.40
2017-12-05T23:50:46.080Z,14.83
2017-12-05T23:53:14.723Z,13.83
2017-12-05T23:55:43.005Z,12.80
2017-12-05T23:58:11.250Z,14.80
